Time;durP1;ratioP1;P1;durP2;ratioP2;P2;SDS_P1;SDS_P2;PMS_P1;PMS_P2;Temp;Humidity;BMP_temperature;BMP_pressure;BME280_temperature;BME280_humidity;BME280_pressure;Samples;Min_cycle;Max_cycle;Signal;HPM_P1;HPM_P2
2021/09/23 00:01:39;;;;;;;19.02;8.13;;;;;;;;;;8324397;28;20352;-74
2021/09/23 00:05:45;;;;;;;17.75;8.63;;;;;;;;;;8313797;28;20055;-74
2021/09/23 00:09:49;;;;;;;24.80;8.95;;;;;;;;;;8326457;28;20481;-74
2021/09/23 00:13:54;;;;;;;17.75;8.15;;;;;;;;;;8326709;28;20502;-74
2021/09/23 00:18:07;;;;;;;13.65;8.45;;;;;;;;;;8327280;28;20482;-74
2021/09/23 00:22:13;;;;;;;20.17;10.10;;;;;;;;;;8325410;28;20044;-74
2021/09/23 00:26:18;;;;;;;14.38;7.95;;;;;;;;;;8323259;28;20455;-75
2021/09/23 00:30:25;;;;;;;17.67;9.57;;;;;;;;;;8325733;28;20458;-75
2021/09/23 00:34:30;;;;;;;20.88;9.18;;;;;;;;;;8326788;28;20040;-73
2021/09/23 00:38:35;;;;;;;17.30;8.75;;;;;;;;;;8322776;28;20471;-74
2021/09/23 00:42:42;;;;;;;14.35;7.95;;;;;;;;;;8327308;28;20458;-74
2021/09/23 00:46:50;;;;;;;16.42;8.10;;;;;;;;;;8307411;28;20039;-74
2021/09/23 00:50:59;;;;;;;13.50;8.10;;;;;;;;;;8340207;28;20052;-74
2021/09/23 00:55:11;;;;;;;20.02;7.50;;;;;;;;;;8324261;28;20463;-75
2021/09/23 00:59:16;;;;;;;14.15;6.97;;;;;;;;;;8325062;28;20323;-74
2021/09/23 01:03:22;;;;;;;12.82;7.10;;;;;;;;;;8323396;28;20040;-74
2021/09/23 01:07:33;;;;;;;10.80;6.22;;;;;;;;;;8324472;28;20401;-75
2021/09/23 01:11:38;;;;;;;12.20;6.72;;;;;;;;;;8323547;28;20504;-74
2021/09/23 01:15:44;;;;;;;15.20;7.55;;;;;;;;;;8323432;28;20386;-74
2021/09/23 01:19:50;;;;;;;14.32;7.00;;;;;;;;;;8321848;28;20497;-75
2021/09/23 01:23:56;;;;;;;13.10;7.72;;;;;;;;;;8290058;28;20470;-74
2021/09/23 01:28:02;;;;;;;15.65;8.05;;;;;;;;;;8307419;28;20495;-74
2021/09/23 01:32:21;;;;;;;15.05;7.72;;;;;;;;;;8321239;28;20474;-75
2021/09/23 01:36:28;;;;;;;15.50;7.80;;;;;;;;;;8322546;28;20409;-74
2021/09/23 01:40:37;;;;;;;20.48;9.98;;;;;;;;;;8339560;28;20044;-74
2021/09/23 01:44:45;;;;;;;14.57;7.88;;;;;;;;;;8323506;28;20393;-74
2021/09/23 01:48:52;;;;;;;21.15;8.18;;;;;;;;;;8323980;28;20473;-74
2021/09/23 01:52:58;;;;;;;18.55;8.48;;;;;;;;;;8339202;28;20477;-74
2021/09/23 01:57:03;;;;;;;25.05;8.18;;;;;;;;;;8322125;28;20451;-74
2021/09/23 02:01:09;;;;;;;15.45;9.10;;;;;;;;;;8338900;28;20455;-75
2021/09/23 02:05:15;;;;;;;20.50;8.80;;;;;;;;;;8338535;28;20470;-74
2021/09/23 02:09:20;;;;;;;18.00;9.05;;;;;;;;;;8288405;28;20378;-75
2021/09/23 02:13:25;;;;;;;16.02;9.57;;;;;;;;;;8320955;28;20470;-74
2021/09/23 02:17:31;;;;;;;18.50;8.52;;;;;;;;;;8338760;28;20063;-75
2021/09/23 02:21:42;;;;;;;18.15;10.13;;;;;;;;;;8321340;28;20040;-74
2021/09/23 02:25:47;;;;;;;20.52;11.13;;;;;;;;;;8338385;28;20443;-75
2021/09/23 02:29:53;;;;;;;21.90;11.45;;;;;;;;;;8327123;28;20328;-74
2021/09/23 02:33:58;;;;;;;21.27;11.10;;;;;;;;;;8329035;28;20493;-74
2021/09/23 02:38:03;;;;;;;21.58;10.52;;;;;;;;;;8312336;28;20059;-74
2021/09/23 02:42:09;;;;;;;25.50;11.50;;;;;;;;;;8311565;28;20066;-74
2021/09/23 02:46:14;;;;;;;20.02;10.77;;;;;;;;;;8344836;28;20347;-75
2021/09/23 02:50:19;;;;;;;23.48;11.45;;;;;;;;;;8311904;28;20454;-75
2021/09/23 02:54:24;;;;;;;21.73;12.27;;;;;;;;;;8327574;28;20074;-75
2021/09/23 02:58:29;;;;;;;24.38;12.63;;;;;;;;;;8328198;28;20429;-75
2021/09/23 03:02:34;;;;;;;26.30;13.20;;;;;;;;;;8344864;28;20451;-74
2021/09/23 03:06:41;;;;;;;33.95;15.73;;;;;;;;;;8328187;28;20359;-75
2021/09/23 03:10:46;;;;;;;31.60;14.07;;;;;;;;;;8326520;28;20463;-75
2021/09/23 03:14:52;;;;;;;31.25;15.77;;;;;;;;;;8310950;28;20450;-75
2021/09/23 03:18:57;;;;;;;33.15;16.13;;;;;;;;;;8343278;28;20344;-75
2021/09/23 03:23:02;;;;;;;36.63;16.20;;;;;;;;;;8343513;28;20359;-75
2021/09/23 03:27:08;;;;;;;33.03;14.90;;;;;;;;;;8327376;28;20336;-74
2021/09/23 03:31:14;;;;;;;34.13;17.17;;;;;;;;;;8328692;28;20492;-74
2021/09/23 03:35:21;;;;;;;34.55;16.85;;;;;;;;;;8326268;28;20469;-74
2021/09/23 03:39:26;;;;;;;32.13;16.23;;;;;;;;;;8326073;28;20483;-74
2021/09/23 03:43:32;;;;;;;37.00;18.42;;;;;;;;;;8327176;28;20055;-74
2021/09/23 03:47:37;;;;;;;35.95;18.13;;;;;;;;;;8325956;28;20378;-73
2021/09/23 03:51:42;;;;;;;47.88;19.75;;;;;;;;;;8325645;28;20352;-73
2021/09/23 03:55:48;;;;;;;44.50;19.35;;;;;;;;;;8324863;28;20067;-73
2021/09/23 03:59:53;;;;;;;51.28;20.08;;;;;;;;;;8342514;28;20326;-73
2021/09/23 04:03:58;;;;;;;53.33;21.55;;;;;;;;;;8326083;28;20477;-74
2021/09/23 04:08:04;;;;;;;53.38;22.70;;;;;;;;;;8340697;28;20493;-75
2021/09/23 04:12:10;;;;;;;59.53;23.23;;;;;;;;;;8309012;28;20521;-76
2021/09/23 04:16:15;;;;;;;69.25;23.60;;;;;;;;;;8324292;28;20052;-75
2021/09/23 04:20:20;;;;;;;71.18;23.45;;;;;;;;;;8326330;28;20466;-74
2021/09/23 04:24:31;;;;;;;54.13;21.58;;;;;;;;;;8326573;28;20490;-74
2021/09/23 04:28:36;;;;;;;57.53;21.35;;;;;;;;;;8324212;28;20355;-74
2021/09/23 04:32:41;;;;;;;67.32;21.75;;;;;;;;;;8324697;28;20351;-74
2021/09/23 04:36:48;;;;;;;57.03;20.65;;;;;;;;;;8324386;28;20492;-74
2021/09/23 04:40:53;;;;;;;54.85;21.42;;;;;;;;;;8309207;28;20048;-74
2021/09/23 04:45:00;;;;;;;54.40;20.45;;;;;;;;;;8324049;28;20447;-75
2021/09/23 04:49:13;;;;;;;57.10;20.80;;;;;;;;;;8306902;28;20371;-74
2021/09/23 04:53:18;;;;;;;66.60;22.73;;;;;;;;;;8305197;28;20465;-73
2021/09/23 04:57:24;;;;;;;57.45;20.80;;;;;;;;;;8325324;28;20355;-75
2021/09/23 05:01:35;;;;;;;53.97;20.02;;;;;;;;;;8323117;28;20105;-74
2021/09/23 05:05:44;;;;;;;54.08;21.17;;;;;;;;;;8339788;28;20070;-74
2021/09/23 05:09:51;;;;;;;49.25;19.10;;;;;;;;;;8323141;28;20413;-74
2021/09/23 05:13:57;;;;;;;58.27;21.60;;;;;;;;;;8339602;28;20360;-74
2021/09/23 05:18:05;;;;;;;50.60;20.42;;;;;;;;;;8339233;28;20459;-74
2021/09/23 05:22:09;;;;;;;48.38;18.98;;;;;;;;;;8315314;28;20312;-74
2021/09/23 05:26:14;;;;;;;45.33;19.92;;;;;;;;;;8221778;28;20451;-75
2021/09/23 05:30:20;;;;;;;48.65;18.95;;;;;;;;;;8257283;28;20464;-73
2021/09/23 05:34:25;;;;;;;43.35;21.13;;;;;;;;;;8256955;28;20084;-73
2021/09/23 05:38:31;;;;;;;45.90;19.92;;;;;;;;;;8272882;28;20474;-74
2021/09/23 05:42:37;;;;;;;41.70;17.75;;;;;;;;;;8257465;28;20476;-74
2021/09/23 05:46:42;;;;;;;38.60;19.50;;;;;;;;;;8257654;28;20387;-74
2021/09/23 05:50:49;;;;;;;43.97;18.58;;;;;;;;;;8255970;28;20371;-74
2021/09/23 05:54:54;;;;;;;40.47;18.75;;;;;;;;;;8255880;28;20040;-74
2021/09/23 05:58:59;;;;;;;34.33;15.82;;;;;;;;;;8256114;28;20448;-73
2021/09/23 06:03:04;;;;;;;38.53;17.20;;;;;;;;;;8257043;28;20403;-73
2021/09/23 06:07:10;;;;;;;36.08;15.63;;;;;;;;;;8256875;28;20504;-74
2021/09/23 06:11:16;;;;;;;35.22;15.48;;;;;;;;;;8260171;28;20481;-73
2021/09/23 06:15:22;;;;;;;28.35;15.43;;;;;;;;;;8257438;28;20452;-73
2021/09/23 06:19:27;;;;;;;27.23;14.48;;;;;;;;;;8257680;28;20481;-74
2021/09/23 06:23:32;;;;;;;30.55;14.43;;;;;;;;;;8257604;28;20375;-74
2021/09/23 06:27:37;;;;;;;29.42;13.65;;;;;;;;;;8257395;28;20055;-74
2021/09/23 06:31:43;;;;;;;23.67;13.05;;;;;;;;;;8255513;28;20049;-73
2021/09/23 06:35:48;;;;;;;28.00;13.07;;;;;;;;;;8256853;28;20522;-74
2021/09/23 06:39:54;;;;;;;25.83;12.85;;;;;;;;;;8271956;28;20498;-74
2021/09/23 06:44:02;;;;;;;23.55;12.52;;;;;;;;;;8258849;28;20060;-73
2021/09/23 06:48:07;;;;;;;32.25;13.68;;;;;;;;;;8257335;28;20356;-75
2021/09/23 06:52:12;;;;;;;24.42;13.00;;;;;;;;;;8257952;28;20491;-73
2021/09/23 06:56:18;;;;;;;27.15;13.32;;;;;;;;;;8258263;28;20475;-73
2021/09/23 07:00:23;;;;;;;28.52;12.73;;;;;;;;;;8258450;28;20329;-74
2021/09/23 07:05:01;;;;;;;36.07;15.37;;;;;;;;;;8075187;28;5001030;-74
2021/09/23 07:09:12;;;;;;;24.52;11.93;;;;;;;;;;8254613;28;20053;-74
2021/09/23 07:13:17;;;;;;;28.70;11.02;;;;;;;;;;8239002;28;20490;-74
2021/09/23 07:17:23;;;;;;;23.25;9.73;;;;;;;;;;8277295;28;20448;-73
2021/09/23 07:21:28;;;;;;;19.13;8.13;;;;;;;;;;8262815;28;20398;-74
2021/09/23 07:25:34;;;;;;;14.95;8.18;;;;;;;;;;8261247;28;20355;-74
2021/09/23 07:29:39;;;;;;;18.83;8.48;;;;;;;;;;8261471;28;20150;-74
2021/09/23 07:33:45;;;;;;;15.73;7.40;;;;;;;;;;8277825;28;20053;-74
2021/09/23 07:37:50;;;;;;;14.48;7.30;;;;;;;;;;8263864;28;20049;-74
2021/09/23 07:41:55;;;;;;;15.85;6.95;;;;;;;;;;8262592;28;20380;-74
2021/09/23 07:46:01;;;;;;;16.70;6.72;;;;;;;;;;8261374;28;20472;-74
2021/09/23 07:50:06;;;;;;;13.77;6.05;;;;;;;;;;8259795;28;20328;-74
2021/09/23 07:54:13;;;;;;;11.77;5.20;;;;;;;;;;8252659;28;20384;-74
2021/09/23 07:58:18;;;;;;;14.65;4.88;;;;;;;;;;8277753;28;20356;-75
2021/09/23 08:02:24;;;;;;;7.82;4.65;;;;;;;;;;8260781;28;20444;-72
2021/09/23 08:06:30;;;;;;;15.95;6.15;;;;;;;;;;8260123;28;20472;-75
2021/09/23 08:10:38;;;;;;;13.05;4.30;;;;;;;;;;8255373;28;20509;-73
2021/09/23 08:14:44;;;;;;;10.90;3.75;;;;;;;;;;8257610;28;20387;-73
2021/09/23 08:18:58;;;;;;;12.48;4.70;;;;;;;;;;8241603;28;20498;-75
2021/09/23 08:23:19;;;;;;;12.38;3.70;;;;;;;;;;8256661;28;20041;-73
2021/09/23 08:27:24;;;;;;;16.48;4.32;;;;;;;;;;8259642;28;20376;-73
2021/09/23 08:31:30;;;;;;;9.98;4.15;;;;;;;;;;8259869;28;20415;-73
2021/09/23 08:35:38;;;;;;;10.20;4.60;;;;;;;;;;8258099;28;20079;-73
2021/09/23 08:39:45;;;;;;;13.98;3.35;;;;;;;;;;8259747;28;20471;-74
2021/09/23 08:43:50;;;;;;;13.20;3.47;;;;;;;;;;8259448;28;20491;-74
2021/09/23 08:47:56;;;;;;;11.75;2.95;;;;;;;;;;8258111;28;20494;-74
2021/09/23 08:52:02;;;;;;;11.95;4.53;;;;;;;;;;8241316;28;20330;-74
2021/09/23 08:56:15;;;;;;;13.70;4.00;;;;;;;;;;8258250;28;20063;-72
2021/09/23 09:00:21;;;;;;;12.50;4.50;;;;;;;;;;8241390;28;20476;-74
2021/09/23 09:04:33;;;;;;;13.35;4.03;;;;;;;;;;8256836;28;20465;-76
2021/09/23 09:08:57;;;;;;;12.02;4.03;;;;;;;;;;8258596;28;20452;-74
2021/09/23 09:13:12;;;;;;;14.90;4.95;;;;;;;;;;8260520;28;20079;-74
2021/09/23 09:17:20;;;;;;;12.40;4.05;;;;;;;;;;8256774;28;20040;-74
2021/09/23 09:21:30;;;;;;;14.50;3.75;;;;;;;;;;8240782;28;20337;-74
2021/09/23 09:25:39;;;;;;;;;;;;;;;;;;8258281;28;20375;-74
2021/09/23 09:29:55;;;;;;;16.55;3.70;;;;;;;;;;8224938;28;20364;-74
2021/09/23 09:34:03;;;;;;;10.02;3.92;;;;;;;;;;8257823;28;20358;-73
2021/09/23 09:38:22;;;;;;;9.80;3.45;;;;;;;;;;8256321;28;20418;-72
2021/09/23 09:42:29;;;;;;;9.32;4.25;;;;;;;;;;8242659;28;20451;-73
2021/09/23 09:46:41;;;;;;;14.15;3.45;;;;;;;;;;8256982;28;20041;-73
2021/09/23 09:50:48;;;;;;;11.13;3.65;;;;;;;;;;8256298;28;20472;-73
2021/09/23 09:55:02;;;;;;;12.70;3.72;;;;;;;;;;8256984;28;20048;-74
2021/09/23 09:59:20;;;;;;;13.77;4.38;;;;;;;;;;8257408;28;20464;-74
2021/09/23 10:03:30;;;;;;;8.98;2.90;;;;;;;;;;8241240;28;20357;-73
2021/09/23 10:07:36;;;;;;;12.90;3.47;;;;;;;;;;8255667;28;20079;-74
2021/09/23 10:11:49;;;;;;;9.48;4.03;;;;;;;;;;8258458;28;20445;-72
2021/09/23 10:15:57;;;;;;;13.43;4.10;;;;;;;;;;8241824;28;20467;-74
2021/09/23 10:20:06;;;;;;;14.35;5.50;;;;;;;;;;8239405;28;20045;-73
2021/09/23 10:24:15;;;;;;;8.30;3.25;;;;;;;;;;8257389;28;20479;-74
2021/09/23 10:28:21;;;;;;;15.30;6.23;;;;;;;;;;8255097;28;20384;-75
2021/09/23 10:32:27;;;;;;;17.10;4.25;;;;;;;;;;8239462;28;20068;-74
2021/09/23 10:36:36;;;;;;;12.15;4.55;;;;;;;;;;8240365;28;20455;-75
2021/09/23 10:40:43;;;;;;;14.57;4.05;;;;;;;;;;8255600;28;20360;-75
2021/09/23 10:44:52;;;;;;;11.80;4.97;;;;;;;;;;8261670;28;20099;-73
2021/09/23 10:48:58;;;;;;;11.73;4.90;;;;;;;;;;8264444;28;20364;-75
2021/09/23 10:53:06;;;;;;;10.43;3.60;;;;;;;;;;8259628;28;20348;-75
2021/09/23 10:57:18;;;;;;;12.05;3.78;;;;;;;;;;8278291;28;20444;-75
2021/09/23 11:01:30;;;;;;;9.10;3.80;;;;;;;;;;8261519;28;20341;-73
2021/09/23 11:05:45;;;;;;;5.53;2.92;;;;;;;;;;8245991;28;20053;-74
2021/09/23 11:10:09;;;;;;;10.38;3.97;;;;;;;;;;8261298;28;20394;-74
2021/09/23 11:14:18;;;;;;;13.90;3.78;;;;;;;;;;8277885;28;20586;-73
2021/09/23 11:18:24;;;;;;;9.15;4.00;;;;;;;;;;8261344;28;20342;-74
2021/09/23 11:22:41;;;;;;;11.07;3.90;;;;;;;;;;8277785;28;20333;-74
2021/09/23 11:26:47;;;;;;;14.90;4.45;;;;;;;;;;8261092;28;20452;-74
2021/09/23 11:30:54;;;;;;;12.00;4.00;;;;;;;;;;8244767;28;20390;-74
2021/09/23 11:35:05;;;;;;;14.65;5.03;;;;;;;;;;8277563;28;20059;-73
2021/09/23 11:39:20;;;;;;;10.85;3.58;;;;;;;;;;8278192;28;20387;-75
2021/09/23 11:43:29;;;;;;;11.88;4.15;;;;;;;;;;8262254;28;20478;-75
2021/09/23 11:47:48;;;;;;;13.38;4.05;;;;;;;;;;8276322;28;20367;-73
2021/09/23 11:51:57;;;;;;;13.98;4.65;;;;;;;;;;8245966;28;20482;-75
2021/09/23 11:56:10;;;;;;;11.38;4.22;;;;;;;;;;8276805;28;20412;-75
2021/09/23 12:00:18;;;;;;;7.78;3.20;;;;;;;;;;8263243;28;20403;-75
2021/09/23 12:04:23;;;;;;;7.32;4.20;;;;;;;;;;8276049;28;20391;-75
2021/09/23 12:08:29;;;;;;;14.13;3.95;;;;;;;;;;8275727;28;20476;-74
2021/09/23 12:12:38;;;;;;;7.43;3.58;;;;;;;;;;8262084;28;20053;-76
2021/09/23 12:16:43;;;;;;;10.23;4.32;;;;;;;;;;8275402;28;20376;-75
2021/09/23 12:21:07;;;;;;;10.63;4.82;;;;;;;;;;8260233;28;20399;-74
2021/09/23 12:25:16;;;;;;;9.48;5.40;;;;;;;;;;8260061;28;20444;-76
2021/09/23 12:29:23;;;;;;;9.75;4.78;;;;;;;;;;8275660;28;20464;-76
2021/09/23 12:33:30;;;;;;;12.93;6.45;;;;;;;;;;8275181;28;20040;-73
2021/09/23 12:37:37;;;;;;;14.57;4.82;;;;;;;;;;8242747;28;20049;-74
2021/09/23 12:42:11;;;;;;;8.43;4.13;;;;;;;;;;8260741;28;20372;-74
2021/09/23 12:46:18;;;;;;;7.25;3.50;;;;;;;;;;8258142;28;20361;-74
2021/09/23 12:50:26;;;;;;;7.57;3.65;;;;;;;;;;8242277;28;20044;-71
2021/09/23 12:54:31;;;;;;;12.35;3.83;;;;;;;;;;8259316;28;20352;-71
2021/09/23 12:58:37;;;;;;;12.05;5.25;;;;;;;;;;8274881;28;20387;-73
2021/09/23 13:02:46;;;;;;;9.60;3.75;;;;;;;;;;8257976;28;20033;-75
2021/09/23 13:06:53;;;;;;;6.70;2.80;;;;;;;;;;8257474;28;20372;-72
2021/09/23 13:11:11;;;;;;;11.23;3.40;;;;;;;;;;8258442;28;20367;-72
2021/09/23 13:15:49;;;;;;;16.20;3.70;;;;;;;;;;8257832;28;20041;-73
2021/09/23 13:19:54;;;;;;;10.48;4.40;;;;;;;;;;8262304;28;20462;-73
2021/09/23 13:24:20;;;;;;;9.15;4.07;;;;;;;;;;8259017;28;20394;-73
2021/09/23 13:28:33;;;;;;;11.73;5.22;;;;;;;;;;8273732;28;20368;-73
2021/09/23 13:32:40;;;;;;;11.63;4.22;;;;;;;;;;8240820;28;20486;-74
2021/09/23 13:36:46;;;;;;;8.02;4.20;;;;;;;;;;8273640;28;20326;-76
2021/09/23 13:40:53;;;;;;;7.30;3.97;;;;;;;;;;8259075;28;20460;-74
2021/09/23 13:44:59;;;;;;;8.32;4.43;;;;;;;;;;8273719;28;20433;-75
2021/09/23 13:49:04;;;;;;;12.98;4.88;;;;;;;;;;8257550;28;20491;-75
2021/09/23 13:53:10;;;;;;;16.77;5.22;;;;;;;;;;8273520;28;20414;-73
2021/09/23 13:57:24;;;;;;;12.70;5.40;;;;;;;;;;8272489;28;20045;-74
2021/09/23 14:01:30;;;;;;;9.63;5.63;;;;;;;;;;8260792;28;20041;-73
2021/09/23 14:05:38;;;;;;;;;;;;;;;;;;8258784;28;20071;-74
2021/09/23 14:09:44;;;;;;;10.27;5.10;;;;;;;;;;8273127;28;20410;-74
2021/09/23 14:13:59;;;;;;;10.77;5.30;;;;;;;;;;8241504;28;20049;-73
2021/09/23 14:18:04;;;;;;;7.82;4.88;;;;;;;;;;8272091;28;20407;-73
2021/09/23 14:22:17;;;;;;;9.52;4.78;;;;;;;;;;8256502;28;20468;-75
2021/09/23 14:26:27;;;;;;;11.75;5.18;;;;;;;;;;8258744;28;20045;-72
2021/09/23 14:30:35;;;;;;;8.60;5.40;;;;;;;;;;8268978;28;20045;-74
2021/09/23 14:34:42;;;;;;;10.30;4.95;;;;;;;;;;8236130;28;20341;-75
2021/09/23 14:38:50;;;;;;;18.45;7.35;;;;;;;;;;8261351;28;20325;-73
2021/09/23 14:42:56;;;;;;;15.75;6.75;;;;;;;;;;8263894;28;20053;-74
2021/09/23 14:47:01;;;;;;;13.73;5.60;;;;;;;;;;8261405;28;20483;-73
2021/09/23 14:51:07;;;;;;;8.95;5.30;;;;;;;;;;8262918;28;20372;-74
2021/09/23 14:55:12;;;;;;;11.90;5.30;;;;;;;;;;8275316;28;20041;-73
2021/09/23 14:59:17;;;;;;;11.98;5.63;;;;;;;;;;8261184;28;20464;-73
2021/09/23 15:03:23;;;;;;;13.25;5.68;;;;;;;;;;8262142;28;20490;-75
2021/09/23 15:07:28;;;;;;;9.60;4.93;;;;;;;;;;8260534;28;20476;-75
2021/09/23 15:11:34;;;;;;;13.35;5.78;;;;;;;;;;8262665;28;20487;-75
2021/09/23 15:15:41;;;;;;;21.25;5.85;;;;;;;;;;8261672;28;20415;-73
2021/09/23 15:19:46;;;;;;;11.80;4.63;;;;;;;;;;8244761;28;20403;-74
2021/09/23 15:23:53;;;;;;;7.35;5.10;;;;;;;;;;8263411;28;20464;-73
2021/09/23 15:27:58;;;;;;;14.23;5.75;;;;;;;;;;8261284;28;20379;-74
2021/09/23 15:32:04;;;;;;;10.18;4.35;;;;;;;;;;8261741;28;20533;-74
2021/09/23 15:36:10;;;;;;;19.20;8.73;;;;;;;;;;8277570;28;20386;-74
2021/09/23 15:40:15;;;;;;;11.88;7.50;;;;;;;;;;8261747;28;20448;-75
2021/09/23 15:44:21;;;;;;;20.45;6.03;;;;;;;;;;8261382;28;20057;-74
2021/09/23 15:48:26;;;;;;;10.20;5.00;;;;;;;;;;8260321;28;20045;-72
2021/09/23 15:52:32;;;;;;;13.10;5.20;;;;;;;;;;8260617;28;20475;-72
2021/09/23 15:56:37;;;;;;;11.68;6.50;;;;;;;;;;8260084;28;20460;-74
2021/09/23 16:00:45;;;;;;;13.55;4.97;;;;;;;;;;8259328;28;20059;-75
2021/09/23 16:04:50;;;;;;;10.13;5.03;;;;;;;;;;8264896;28;20596;-73
2021/09/23 16:08:54;;;;;;;17.33;8.13;;;;;;;;;;8259947;28;20352;-73
2021/09/23 16:12:59;;;;;;;17.40;8.40;;;;;;;;;;8260188;28;20483;-74
2021/09/23 16:17:04;;;;;;;12.15;7.05;;;;;;;;;;8259952;28;20368;-74
2021/09/23 16:21:10;;;;;;;11.32;7.25;;;;;;;;;;8260899;28;20384;-73
2021/09/23 16:25:16;;;;;;;12.40;6.28;;;;;;;;;;8275466;28;20371;-73
2021/09/23 16:29:22;;;;;;;11.93;4.90;;;;;;;;;;8258767;28;20102;-74
2021/09/23 16:33:27;;;;;;;17.92;6.82;;;;;;;;;;8260872;28;20048;-73
2021/09/23 16:37:32;;;;;;;14.98;8.15;;;;;;;;;;8260053;28;20067;-73
2021/09/23 16:41:37;;;;;;;15.93;7.10;;;;;;;;;;8261199;28;20045;-73
2021/09/23 16:45:43;;;;;;;23.20;9.40;;;;;;;;;;8259408;28;20452;-74
2021/09/23 16:49:48;;;;;;;17.92;7.88;;;;;;;;;;8258233;28;20444;-72
2021/09/23 16:53:53;;;;;;;27.83;14.27;;;;;;;;;;8259245;28;20448;-73
2021/09/23 16:58:17;;;;;;;34.63;13.18;;;;;;;;;;8259749;28;20075;-74
2021/09/23 17:02:22;;;;;;;21.10;9.95;;;;;;;;;;8259512;28;20359;-74
2021/09/23 17:06:28;;;;;;;22.48;11.75;;;;;;;;;;8259136;28;20045;-74
2021/09/23 17:10:33;;;;;;;19.40;7.15;;;;;;;;;;8258208;28;20479;-73
2021/09/23 17:14:38;;;;;;;25.27;9.20;;;;;;;;;;8259077;28;20364;-74
2021/09/23 17:18:43;;;;;;;18.45;8.63;;;;;;;;;;8256704;28;20471;-72
2021/09/23 17:22:50;;;;;;;15.85;7.25;;;;;;;;;;8258554;28;20468;-73
2021/09/23 17:26:55;;;;;;;20.63;9.02;;;;;;;;;;8275046;28;20479;-74
2021/09/23 17:31:01;;;;;;;21.17;7.90;;;;;;;;;;8259239;28;20447;-73
2021/09/23 17:35:07;;;;;;;15.35;6.70;;;;;;;;;;8259212;28;20094;-74
2021/09/23 17:39:12;;;;;;;13.82;6.15;;;;;;;;;;8258279;28;20063;-73
2021/09/23 17:43:17;;;;;;;14.13;6.25;;;;;;;;;;8257516;28;20061;-73
2021/09/23 17:47:22;;;;;;;14.60;5.55;;;;;;;;;;8273207;28;20068;-74
2021/09/23 17:51:29;;;;;;;12.32;5.93;;;;;;;;;;8256869;28;20407;-74
2021/09/23 17:55:34;;;;;;;20.20;5.65;;;;;;;;;;8258005;28;20357;-74
2021/09/23 17:59:40;;;;;;;18.23;6.53;;;;;;;;;;8257719;28;20403;-73
2021/09/23 18:03:45;;;;;;;18.90;8.13;;;;;;;;;;8255479;28;20464;-74
2021/09/23 18:07:51;;;;;;;18.55;9.52;;;;;;;;;;8255587;28;20391;-74
2021/09/23 18:12:01;;;;;;;13.47;4.93;;;;;;;;;;8257302;28;20342;-73
2021/09/23 18:16:07;;;;;;;19.00;6.55;;;;;;;;;;8272773;28;20041;-73
2021/09/23 18:20:13;;;;;;;13.68;5.93;;;;;;;;;;8239690;28;20421;-74
2021/09/23 18:24:19;;;;;;;14.00;6.35;;;;;;;;;;8240011;28;20461;-74
2021/09/23 18:28:24;;;;;;;17.70;6.20;;;;;;;;;;8255764;28;20479;-74
2021/09/23 18:32:30;;;;;;;15.10;6.22;;;;;;;;;;8271826;28;20475;-73
2021/09/23 18:36:35;;;;;;;10.85;4.75;;;;;;;;;;8254880;28;20367;-74
2021/09/23 18:40:41;;;;;;;11.25;3.97;;;;;;;;;;8271025;28;20353;-73
2021/09/23 18:44:47;;;;;;;13.40;4.63;;;;;;;;;;8254563;28;20067;-75
2021/09/23 18:48:52;;;;;;;11.73;5.03;;;;;;;;;;8258398;28;20483;-73
2021/09/23 18:52:57;;;;;;;11.48;4.80;;;;;;;;;;8258064;28;20379;-74
2021/09/23 18:57:05;;;;;;;14.52;5.07;;;;;;;;;;8258356;28;20057;-74
2021/09/23 19:01:11;;;;;;;9.80;5.30;;;;;;;;;;8254985;28;20395;-75
2021/09/23 19:05:19;;;;;;;17.42;6.70;;;;;;;;;;8271953;28;20383;-74
2021/09/23 19:09:25;;;;;;;10.10;5.13;;;;;;;;;;8255797;28;20419;-74
2021/09/23 19:13:30;;;;;;;12.43;4.85;;;;;;;;;;8265551;28;20337;-73
2021/09/23 19:17:37;;;;;;;10.82;5.38;;;;;;;;;;8262284;28;20468;-74
2021/09/23 19:21:42;;;;;;;12.18;5.07;;;;;;;;;;8262190;28;20049;-75
2021/09/23 19:25:49;;;;;;;12.77;5.18;;;;;;;;;;8262173;28;20053;-74
2021/09/23 19:29:54;;;;;;;11.80;5.10;;;;;;;;;;8261381;28;20466;-73
2021/09/23 19:33:59;;;;;;;19.95;7.63;;;;;;;;;;8244481;28;20061;-74
2021/09/23 19:38:05;;;;;;;10.95;5.22;;;;;;;;;;8261980;28;20045;-74
2021/09/23 19:42:10;;;;;;;14.25;5.85;;;;;;;;;;8260086;28;20498;-74
2021/09/23 19:46:16;;;;;;;13.40;6.97;;;;;;;;;;8276008;28;20372;-74
2021/09/23 19:50:25;;;;;;;14.32;6.47;;;;;;;;;;8243721;28;20190;-74
2021/09/23 19:54:36;;;;;;;12.57;5.57;;;;;;;;;;8261137;28;20456;-75
2021/09/23 19:58:45;;;;;;;20.00;6.45;;;;;;;;;;8259944;28;20448;-73
2021/09/23 20:02:51;;;;;;;9.88;4.40;;;;;;;;;;8264246;28;20356;-74
2021/09/23 20:06:56;;;;;;;14.25;5.63;;;;;;;;;;8259005;28;20415;-75
2021/09/23 20:11:02;;;;;;;10.50;4.90;;;;;;;;;;8263650;28;20045;-73
2021/09/23 20:15:08;;;;;;;14.45;4.82;;;;;;;;;;8258733;28;20372;-74
2021/09/23 20:19:15;;;;;;;12.27;5.20;;;;;;;;;;8259551;28;20049;-74
2021/09/23 20:23:20;;;;;;;12.63;4.90;;;;;;;;;;8261671;28;20954;-74
2021/09/23 20:27:27;;;;;;;9.32;4.85;;;;;;;;;;8262100;28;20049;-74
2021/09/23 20:31:32;;;;;;;11.27;5.15;;;;;;;;;;8260007;28;20033;-73
2021/09/23 20:35:38;;;;;;;14.85;5.57;;;;;;;;;;8262856;28;20391;-74
2021/09/23 20:39:44;;;;;;;14.13;5.80;;;;;;;;;;8262360;28;20467;-74
2021/09/23 20:43:49;;;;;;;16.50;5.60;;;;;;;;;;8259473;28;20399;-71
2021/09/23 20:47:57;;;;;;;11.82;5.75;;;;;;;;;;8258689;28;20348;-74
2021/09/23 20:52:03;;;;;;;12.48;4.70;;;;;;;;;;8260704;28;20506;-73
2021/09/23 20:56:11;;;;;;;11.65;4.00;;;;;;;;;;8258884;28;20045;-74
2021/09/23 21:00:17;;;;;;;7.97;3.40;;;;;;;;;;8257837;28;20506;-73
2021/09/23 21:04:22;;;;;;;7.95;3.40;;;;;;;;;;8258856;28;20387;-72
2021/09/23 21:08:28;;;;;;;9.18;3.88;;;;;;;;;;8258305;28;20371;-73
2021/09/23 21:12:33;;;;;;;6.70;3.10;;;;;;;;;;8260049;28;20456;-74
2021/09/23 21:16:38;;;;;;;6.45;3.35;;;;;;;;;;8259618;28;20491;-75
2021/09/23 21:20:44;;;;;;;5.85;3.03;;;;;;;;;;8259866;28;20372;-74
2021/09/23 21:24:49;;;;;;;8.35;3.08;;;;;;;;;;8258483;28;20579;-71
2021/09/23 21:28:55;;;;;;;6.57;2.90;;;;;;;;;;8256859;28;20472;-74
2021/09/23 21:33:00;;;;;;;5.03;2.55;;;;;;;;;;8257760;28;20075;-74
2021/09/23 21:37:05;;;;;;;10.77;3.42;;;;;;;;;;8258638;28;20053;-75
2021/09/23 21:41:10;;;;;;;7.75;2.92;;;;;;;;;;8257624;28;20411;-75
2021/09/23 21:45:16;;;;;;;8.85;2.65;;;;;;;;;;8258386;28;20067;-73
2021/09/23 21:49:21;;;;;;;6.50;3.33;;;;;;;;;;8256025;28;20387;-74
2021/09/23 21:53:26;;;;;;;9.90;3.42;;;;;;;;;;8258177;28;20107;-73
2021/09/23 21:57:31;;;;;;;6.75;3.35;;;;;;;;;;8258734;28;20335;-73
2021/09/23 22:01:37;;;;;;;8.18;2.90;;;;;;;;;;8274247;28;20064;-75
2021/09/23 22:05:43;;;;;;;5.03;2.90;;;;;;;;;;8258076;28;20460;-75
2021/09/23 22:09:48;;;;;;;7.93;2.80;;;;;;;;;;8256668;28;20053;-75
2021/09/23 22:13:54;;;;;;;6.88;3.25;;;;;;;;;;8255800;28;20041;-74
2021/09/23 22:17:59;;;;;;;7.00;3.13;;;;;;;;;;8255456;28;20480;-76
2021/09/23 22:22:04;;;;;;;6.13;2.40;;;;;;;;;;8257920;28;20053;-73
2021/09/23 22:26:10;;;;;;;7.00;2.95;;;;;;;;;;8258717;28;20480;-74
2021/09/23 22:30:17;;;;;;;7.72;2.78;;;;;;;;;;8257294;28;20484;-72
2021/09/23 22:34:22;;;;;;;5.13;2.63;;;;;;;;;;8273049;28;20071;-73
2021/09/23 22:38:28;;;;;;;8.48;2.70;;;;;;;;;;8256778;28;20360;-74
2021/09/23 22:42:33;;;;;;;6.70;2.83;;;;;;;;;;8256714;28;20375;-73
2021/09/23 22:46:38;;;;;;;9.73;2.92;;;;;;;;;;8278483;28;20349;-73
2021/09/23 22:50:44;;;;;;;12.55;3.00;;;;;;;;;;8263724;28;20399;-73
2021/09/23 22:54:49;;;;;;;6.07;2.78;;;;;;;;;;8261943;28;20375;-74
2021/09/23 22:58:54;;;;;;;4.30;2.47;;;;;;;;;;8262950;28;20383;-75
2021/09/23 23:03:02;;;;;;;5.32;2.97;;;;;;;;;;8262821;28;20349;-71
2021/09/23 23:07:07;;;;;;;9.30;2.92;;;;;;;;;;8261680;28;20053;-74
2021/09/23 23:11:13;;;;;;;7.80;2.63;;;;;;;;;;8262025;28;20468;-75
2021/09/23 23:15:18;;;;;;;6.65;2.92;;;;;;;;;;8261535;28;20415;-74
2021/09/23 23:19:23;;;;;;;6.10;3.22;;;;;;;;;;8263541;28;20499;-74
2021/09/23 23:23:29;;;;;;;7.25;2.80;;;;;;;;;;8244700;28;20420;-75
2021/09/23 23:27:34;;;;;;;7.10;3.03;;;;;;;;;;8262547;28;20471;-73
2021/09/23 23:31:40;;;;;;;5.18;2.65;;;;;;;;;;8277337;28;20504;-74
2021/09/23 23:35:45;;;;;;;6.60;2.70;;;;;;;;;;8262507;28;20341;-73
2021/09/23 23:39:51;;;;;;;5.90;3.08;;;;;;;;;;8261472;28;20091;-75
2021/09/23 23:43:56;;;;;;;7.32;2.58;;;;;;;;;;8261990;28;20400;-77
2021/09/23 23:48:03;;;;;;;5.10;2.88;;;;;;;;;;8261579;28;20360;-75
2021/09/23 23:52:08;;;;;;;4.75;2.60;;;;;;;;;;8264851;28;20352;-75
2021/09/23 23:56:13;;;;;;;12.10;3.28;;;;;;;;;;8264426;28;20464;-76
